Time;durP1;ratioP1;P1;durP2;ratioP2;P2;SDS_P1;SDS_P2;PMS_P1;PMS_P2;Temp;Humidity;BMP_temperature;BMP_pressure;BME280_temperature;BME280_humidity;BME280_pressure;Samples;Min_cycle;Max_cycle;Signal;HPM_P1;HPM_P2
2022/12/10 00:01:59;;;;;;;;;;;;;;;2.72;77.48;97101.88;7385046;19;19922;-70
2022/12/10 00:04:26;;;;;;;;;;;;;;;2.61;77.54;97099.41;7387478;19;19919;-70
2022/12/10 00:06:52;;;;;;;;;;;;;;;2.49;77.80;97103.91;7380845;19;20210;-71
2022/12/10 00:09:19;;;;;;;;;;;;;;;2.48;78.31;97101.47;7384264;19;19923;-71
2022/12/10 00:11:46;;;;;;;;;;;;;;;2.36;78.49;97098.94;7382057;19;19926;-71
2022/12/10 00:14:13;;;;;;;;;;;;;;;2.29;78.82;97099.63;7381048;19;19939;-70
2022/12/10 00:16:40;;;;;;;;;;;;;;;2.35;78.97;97101.72;7383119;19;19943;-71
2022/12/10 00:19:06;;;;;;;;;;;;;;;2.33;78.81;97099.22;7386163;19;19931;-72
2022/12/10 00:21:33;;;;;;;;;;;;;;;2.36;78.70;97098.13;7379323;19;19945;-71
2022/12/10 00:24:00;;;;;;;;;;;;;;;2.56;78.19;97096.38;7386850;19;19922;-71
2022/12/10 00:26:28;;;;;;;;;;;;;;;2.47;77.93;97099.78;7392267;19;19923;-71
2022/12/10 00:28:55;;;;;;;;;;;;;;;2.57;77.96;97101.44;7384823;19;19943;-71
2022/12/10 00:31:26;;;;;;;;;;;;;;;2.60;77.67;97101.16;7379580;19;19931;-72
2022/12/10 00:33:53;;;;;;;;;;;;;;;2.52;77.50;97100.19;7391090;19;19922;-71
2022/12/10 00:36:21;;;;;;;;;;;;;;;2.48;77.92;97098.84;7387903;19;19922;-71
2022/12/10 00:38:48;;;;;;;;;;;;;;;2.52;nan;97097.59;7391853;19;19951;-71
2022/12/10 00:41:15;;;;;;;;;;;;;;;2.44;78.07;97098.28;7387188;19;19918;-71
2022/12/10 00:43:42;;;;;;;;;;;;;;;2.41;77.62;97093.31;7386720;19;20222;-71
2022/12/10 00:46:14;;;;;;;;;;;;;;;2.45;77.83;97086.03;7384263;19;19926;-71
2022/12/10 00:48:41;;;;;;;;;;;;;;;2.41;78.07;97085.50;7387729;19;19943;-71
2022/12/10 00:51:11;;;;;;;;;;;;;;;2.36;78.12;97087.69;7383707;19;19982;-72
2022/12/10 00:53:40;;;;;;;;;;;;;;;2.50;78.08;97087.31;7390889;19;19921;-71
2022/12/10 00:56:08;;;;;;;;;;;;;;;2.56;77.91;97088.53;7388542;19;19919;-72
2022/12/10 00:58:35;;;;;;;;;;;;;;;2.53;77.73;97094.84;7389421;19;19973;-71
2022/12/10 01:01:08;;;;;;;;;;;;;;;2.66;77.34;97098.97;7386164;19;19943;-71
2022/12/10 01:03:34;;;;;;;;;;;;;;;2.46;77.65;97105.97;7384868;19;20030;-71
2022/12/10 01:06:11;;;;;;;;;;;;;;;2.56;77.51;97105.03;7389682;19;19943;-71
2022/12/10 01:08:40;;;;;;;;;;;;;;;2.57;77.45;97106.66;7387724;19;19927;-71
2022/12/10 01:11:09;;;;;;;;;;;;;;;2.55;77.69;97111.19;7388321;19;19939;-71
2022/12/10 01:13:35;;;;;;;;;;;;;;;2.52;77.42;97115.88;7386866;19;20502;-71
2022/12/10 01:16:02;;;;;;;;;;;;;;;2.51;77.64;97122.06;7384917;19;20340;-71
2022/12/10 01:18:29;;;;;;;;;;;;;;;2.50;77.38;97125.63;7385172;19;19926;-72
2022/12/10 01:20:59;;;;;;;;;;;;;;;2.43;77.95;97127.97;7378115;19;19911;-72
2022/12/10 01:23:26;;;;;;;;;;;;;;;2.45;77.47;97133.88;7385668;19;19923;-72
2022/12/10 01:25:52;;;;;;;;;;;;;;;2.63;77.11;97131.41;7389526;19;20285;-72
2022/12/10 01:28:19;;;;;;;;;;;;;;;2.48;76.98;97140.63;7389937;19;19915;-72
2022/12/10 01:30:45;;;;;;;;;;;;;;;2.46;77.65;97142.53;7384845;19;19939;-72
2022/12/10 01:33:12;;;;;;;;;;;;;;;2.54;77.39;97145.28;7387131;19;20389;-72
2022/12/10 01:35:38;;;;;;;;;;;;;;;2.62;77.03;97143.63;7383134;19;19943;-72
2022/12/10 01:38:06;;;;;;;;;;;;;;;2.53;77.29;97154.91;7387834;19;19929;-72
2022/12/10 01:40:36;;;;;;;;;;;;;;;2.43;77.57;97156.66;7383810;19;20534;-72
2022/12/10 01:43:03;;;;;;;;;;;;;;;2.49;77.38;97157.91;7384074;19;19919;-72
2022/12/10 01:45:30;;;;;;;;;;;;;;;2.45;77.80;97159.13;7388803;19;19959;-72
2022/12/10 01:47:56;;;;;;;;;;;;;;;2.53;77.41;97159.31;7388017;19;19986;-72
2022/12/10 01:50:23;;;;;;;;;;;;;;;2.55;77.10;97163.41;7379337;19;19965;-72
2022/12/10 01:52:50;;;;;;;;;;;;;;;2.54;76.76;97161.75;7383291;19;19922;-72
2022/12/10 01:55:35;;;;;;;;;;;;;;;2.51;77.21;97164.66;7387981;19;19915;-72
2022/12/10 01:58:02;;;;;;;;;;;;;;;2.49;77.42;97160.53;7386060;19;19971;-72
2022/12/10 02:00:28;;;;;;;;;;;;;;;2.34;77.85;97167.91;7385614;19;19918;-72
2022/12/10 02:02:59;;;;;;;;;;;;;;;2.48;77.74;97157.09;7387907;19;19922;-72
2022/12/10 02:05:27;;;;;;;;;;;;;;;2.33;77.79;97161.88;7387315;19;19923;-72
2022/12/10 02:08:09;;;;;;;;;;;;;;;2.27;78.07;97161.59;7384993;19;19926;-72
2022/12/10 02:10:36;;;;;;;;;;;;;;;2.28;78.10;97160.63;7383552;19;20296;-72
2022/12/10 02:13:05;;;;;;;;;;;;;;;2.40;77.52;97154.34;7388202;19;19934;-72
2022/12/10 02:15:33;;;;;;;;;;;;;;;2.33;77.85;97155.81;7384608;19;19926;-72
2022/12/10 02:18:06;;;;;;;;;;;;;;;2.41;77.67;97155.97;7387246;19;20244;-72
2022/12/10 02:20:43;;;;;;;;;;;;;;;2.46;77.50;97150.34;7381191;19;19927;-71
2022/12/10 02:23:11;;;;;;;;;;;;;;;2.51;77.30;97148.16;7383185;19;19922;-71
2022/12/10 02:25:44;;;;;;;;;;;;;;;2.44;77.40;97142.66;7380007;19;20216;-72
2022/12/10 02:28:21;;;;;;;;;;;;;;;2.53;76.81;97144.47;7382272;19;19915;-72
2022/12/10 02:30:47;;;;;;;;;;;;;;;2.44;77.09;97147.06;7383163;19;19914;-72
2022/12/10 02:33:14;;;;;;;;;;;;;;;2.34;77.43;97144.41;7385106;19;19943;-72
2022/12/10 02:35:40;;;;;;;;;;;;;;;2.35;77.42;97141.69;7383735;19;19925;-72
2022/12/10 02:38:12;;;;;;;;;;;;;;;2.25;77.59;97142.63;7387664;19;19943;-71
2022/12/10 02:40:42;;;;;;;;;;;;;;;2.22;77.75;97143.72;7382721;19;19915;-71
2022/12/10 02:43:09;;;;;;;;;;;;;;;2.12;nan;97135.84;7378435;19;19926;-72
2022/12/10 02:45:36;;;;;;;;;;;;;;;2.19;78.15;97139.59;7383055;19;20182;-72
2022/12/10 02:48:04;;;;;;;;;;;;;;;2.17;77.99;97136.28;7385574;19;19919;-72
2022/12/10 02:50:36;;;;;;;;;;;;;;;2.19;78.24;97136.97;7381808;19;19919;-72
2022/12/10 02:53:03;;;;;;;;;;;;;;;2.26;78.36;97129.41;7383566;19;19919;-72
2022/12/10 02:55:31;;;;;;;;;;;;;;;2.30;78.13;97125.59;7388546;19;19940;-72
2022/12/10 02:58:04;;;;;;;;;;;;;;;2.33;77.82;97135.75;7380830;19;20307;-72
2022/12/10 03:00:32;;;;;;;;;;;;;;;2.32;77.68;97125.47;7375564;19;19918;-72
2022/12/10 03:03:05;;;;;;;;;;;;;;;2.17;77.99;97122.41;7384593;19;19962;-72
2022/12/10 03:05:50;;;;;;;;;;;;;;;2.12;78.11;97114.16;7386486;19;19978;-72
2022/12/10 03:08:19;;;;;;;;;;;;;;;2.10;78.02;97109.06;7385601;19;19923;-72
2022/12/10 03:10:52;;;;;;;;;;;;;;;2.07;77.96;97109.34;7382799;19;19923;-72
2022/12/10 03:13:19;;;;;;;;;;;;;;;2.05;77.53;97105.22;7388135;19;19915;-72
2022/12/10 03:15:46;;;;;;;;;;;;;;;1.94;77.87;97111.38;7382739;19;19922;-71
2022/12/10 03:18:12;;;;;;;;;;;;;;;1.82;78.52;97118.47;7385766;19;20421;-71
2022/12/10 03:20:40;;;;;;;;;;;;;;;1.95;78.35;97126.06;7383045;19;19925;-71
2022/12/10 03:23:09;;;;;;;;;;;;;;;1.91;78.63;97122.06;7382852;19;19945;-71
2022/12/10 03:25:36;;;;;;;;;;;;;;;1.88;78.60;97114.50;7381076;19;19927;-71
2022/12/10 03:28:02;;;;;;;;;;;;;;;1.89;78.71;97121.38;7383115;19;19915;-71
2022/12/10 03:30:29;;;;;;;;;;;;;;;1.82;78.88;97122.84;7380729;19;19919;-71
2022/12/10 03:32:55;;;;;;;;;;;;;;;1.83;78.98;97116.69;7378971;19;19927;-71
2022/12/10 03:35:22;;;;;;;;;;;;;;;1.86;78.75;97121.63;7381876;19;19943;-71
2022/12/10 03:37:49;;;;;;;;;;;;;;;1.82;78.72;97117.63;7384228;19;20279;-71
2022/12/10 03:40:17;;;;;;;;;;;;;;;1.78;78.92;97108.44;7382776;19;19947;-71
2022/12/10 03:42:43;;;;;;;;;;;;;;;1.85;78.96;97099.94;7382209;19;20316;-71
2022/12/10 03:45:10;;;;;;;;;;;;;;;1.77;79.13;97088.53;7384184;19;20395;-71
2022/12/10 03:47:37;;;;;;;;;;;;;;;1.92;78.55;97093.25;7386024;19;19995;-71
2022/12/10 03:50:04;;;;;;;;;;;;;;;1.98;77.97;97091.91;7378356;19;19919;-71
2022/12/10 03:52:30;;;;;;;;;;;;;;;1.95;77.92;97092.16;7384067;19;19919;-71
2022/12/10 03:54:57;;;;;;;;;;;;;;;1.98;77.85;97107.53;7384594;19;19947;-71
2022/12/10 03:57:23;;;;;;;;;;;;;;;2.03;77.96;97110.59;7385841;19;19923;-72
2022/12/10 03:59:50;;;;;;;;;;;;;;;2.11;77.88;97113.34;7393280;19;19955;-72
2022/12/10 04:02:16;;;;;;;;;;;;;;;2.06;78.00;97128.56;7393509;19;19914;-72
2022/12/10 04:04:43;;;;;;;;;;;;;;;2.10;78.01;97129.94;7390414;19;20402;-72
2022/12/10 04:07:10;;;;;;;;;;;;;;;2.15;77.87;97129.53;7387790;19;19955;-72
2022/12/10 04:09:36;;;;;;;;;;;;;;;2.14;77.83;97133.94;7390855;19;19947;-72
2022/12/10 04:12:04;;;;;;;;;;;;;;;2.13;77.84;97144.50;7391807;19;20344;-71
2022/12/10 04:17:16;;;;;;;;;;;;;;;2.08;78.00;97141.47;7393371;19;19923;-71
2022/12/10 04:19:43;;;;;;;;;;;;;;;2.12;77.99;97153.28;7393166;19;20252;-71
2022/12/10 04:27:40;;;;;;;;;;;;;;;2.24;77.53;97152.25;7391197;19;19926;-71
2022/12/10 04:30:08;;;;;;;;;;;;;;;2.23;77.13;97136.72;7389363;19;19952;-71
2022/12/10 04:32:35;;;;;;;;;;;;;;;2.25;77.22;97150.44;7389703;19;20343;-71
2022/12/10 04:35:01;;;;;;;;;;;;;;;2.25;77.50;97146.06;7392021;19;20310;-71
2022/12/10 04:37:28;;;;;;;;;;;;;;;2.14;77.39;97154.81;7389947;19;20347;-71
2022/12/10 04:39:54;;;;;;;;;;;;;;;2.16;76.95;97159.91;7385471;19;19923;-71
2022/12/10 04:42:21;;;;;;;;;;;;;;;2.20;77.06;97154.28;7386640;19;19926;-71
2022/12/10 04:44:48;;;;;;;;;;;;;;;2.13;77.48;97158.41;7389843;19;19922;-71
2022/12/10 04:47:14;;;;;;;;;;;;;;;2.17;77.40;97158.94;7388421;19;20375;-71
2022/12/10 04:49:41;;;;;;;;;;;;;;;2.23;76.98;97166.22;7388370;19;19939;-71
2022/12/10 04:52:08;;;;;;;;;;;;;;;2.14;77.34;97165.25;7388495;19;20364;-71
2022/12/10 04:54:34;;;;;;;;;;;;;;;2.25;76.79;97163.50;7388306;19;19996;-71
2022/12/10 04:57:05;;;;;;;;;;;;;;;2.20;76.94;97172.53;7386980;19;20358;-71
2022/12/10 04:59:31;;;;;;;;;;;;;;;2.29;76.63;97170.09;7389597;19;19957;-71
2022/12/10 05:01:58;;;;;;;;;;;;;;;2.21;76.79;97175.97;7389325;19;20541;-70
2022/12/10 05:04:24;;;;;;;;;;;;;;;2.19;76.90;97173.50;7385539;19;19935;-70
2022/12/10 05:06:51;;;;;;;;;;;;;;;2.23;76.45;97168.03;7389703;19;19925;-70
2022/12/10 05:09:17;;;;;;;;;;;;;;;2.27;76.44;97172.84;7389184;19;19919;-70
2022/12/10 05:11:44;;;;;;;;;;;;;;;2.08;77.17;97171.00;7387853;19;19919;-71
2022/12/10 05:14:11;;;;;;;;;;;;;;;2.15;76.98;97174.72;7385472;19;19952;-70
2022/12/10 05:16:38;;;;;;;;;;;;;;;2.03;77.28;97181.00;7390276;19;19923;-70
2022/12/10 05:19:04;;;;;;;;;;;;;;;1.97;77.51;97169.31;7391485;19;19940;-70
2022/12/10 05:24:17;;;;;;;;;;;;;;;1.95;77.88;97163.41;7389131;19;19994;-70
2022/12/10 05:26:43;;;;;;;;;;;;;;;2.04;77.53;97164.38;7389222;19;19919;-70
2022/12/10 05:29:11;;;;;;;;;;;;;;;2.03;77.30;97167.97;7384004;19;19914;-71
2022/12/10 05:31:38;;;;;;;;;;;;;;;2.10;77.46;97173.47;7385752;19;19947;-70
2022/12/10 05:34:04;;;;;;;;;;;;;;;2.04;77.52;97166.19;7386526;19;19943;-70
2022/12/10 05:36:31;;;;;;;;;;;;;;;2.05;77.51;97168.63;7389898;19;19914;-70
2022/12/10 05:38:58;;;;;;;;;;;;;;;2.08;77.50;97170.16;7389050;19;20466;-70
2022/12/10 05:41:29;;;;;;;;;;;;;;;1.90;77.68;97173.41;7384397;19;19937;-71
2022/12/10 05:43:56;;;;;;;;;;;;;;;2.00;77.52;97172.59;7384478;19;19954;-70
2022/12/10 05:46:27;;;;;;;;;;;;;;;1.97;77.65;97173.69;7382609;19;19919;-70
2022/12/10 05:48:53;;;;;;;;;;;;;;;1.99;77.64;97179.59;7384390;19;20273;-70
2022/12/10 05:51:22;;;;;;;;;;;;;;;1.99;77.73;97177.00;7385905;19;19938;-70
2022/12/10 05:53:48;;;;;;;;;;;;;;;2.02;77.47;97179.34;7389717;19;19918;-71
2022/12/10 05:56:18;;;;;;;;;;;;;;;2.02;77.60;97181.94;7387040;19;19947;-71
2022/12/10 05:58:44;;;;;;;;;;;;;;;2.02;77.50;97188.97;7386260;19;19927;-71
2022/12/10 06:01:15;;;;;;;;;;;;;;;1.91;77.46;97188.09;7384024;19;19942;-71
2022/12/10 06:03:41;;;;;;;;;;;;;;;1.89;77.88;97189.16;7378412;19;19918;-71
2022/12/10 06:06:08;;;;;;;;;;;;;;;1.76;78.31;97189.38;7385828;19;19918;-71
2022/12/10 06:08:34;;;;;;;;;;;;;;;1.75;78.17;97198.16;7388336;19;19926;-71
2022/12/10 06:11:05;;;;;;;;;;;;;;;1.77;77.90;97200.66;7382512;19;19994;-70
2022/12/10 06:13:32;;;;;;;;;;;;;;;1.89;77.74;97197.00;7386595;19;20289;-71
2022/12/10 06:15:59;;;;;;;;;;;;;;;1.79;77.79;97198.72;7387444;19;19914;-70
2022/12/10 06:18:25;;;;;;;;;;;;;;;1.86;77.39;97198.09;7384837;19;19951;-70
2022/12/10 06:20:52;;;;;;;;;;;;;;;1.80;77.86;97203.00;7379555;19;19936;-71
2022/12/10 06:23:18;;;;;;;;;;;;;;;1.84;77.65;97202.59;7379920;19;19923;-70
2022/12/10 06:25:45;;;;;;;;;;;;;;;1.89;77.61;97199.59;7384293;19;20376;-70
2022/12/10 06:28:12;;;;;;;;;;;;;;;1.91;77.51;97208.94;7387587;19;19922;-70
2022/12/10 06:30:38;;;;;;;;;;;;;;;1.97;77.30;97211.06;7385577;19;19923;-70
2022/12/10 06:33:05;;;;;;;;;;;;;;;1.96;77.20;97219.00;7387148;19;19922;-70
2022/12/10 06:35:31;;;;;;;;;;;;;;;1.95;77.71;97223.41;7384022;19;20447;-70
2022/12/10 06:37:58;;;;;;;;;;;;;;;1.97;77.53;97218.03;7384533;19;19926;-70
2022/12/10 06:40:24;;;;;;;;;;;;;;;1.97;77.25;97218.03;7383739;19;19918;-71
2022/12/10 06:42:51;;;;;;;;;;;;;;;1.97;77.29;97212.81;7384761;19;19939;-70
2022/12/10 06:45:18;;;;;;;;;;;;;;;1.98;77.23;97225.75;7383432;19;19947;-70
2022/12/10 06:47:44;;;;;;;;;;;;;;;1.87;77.53;97232.81;7387257;19;19929;-70
2022/12/10 06:50:11;;;;;;;;;;;;;;;2.08;76.71;97227.56;7386279;19;20236;-70
2022/12/10 06:52:38;;;;;;;;;;;;;;;1.91;77.11;97223.78;7382896;19;19928;-71
2022/12/10 06:55:05;;;;;;;;;;;;;;;1.96;77.38;97222.44;7382378;19;19927;-70
2022/12/10 06:57:31;;;;;;;;;;;;;;;2.10;76.96;97226.47;7381720;19;19919;-71
2022/12/10 06:59:58;;;;;;;;;;;;;;;2.04;77.27;97229.59;7388705;19;19923;-71
2022/12/10 07:02:24;;;;;;;;;;;;;;;1.90;77.62;97228.19;7386574;19;19927;-71
2022/12/10 07:04:51;;;;;;;;;;;;;;;1.95;77.41;97226.00;7383921;19;20276;-71
2022/12/10 07:07:18;;;;;;;;;;;;;;;1.89;77.86;97223.06;7386684;19;19919;-70
2022/12/10 07:09:44;;;;;;;;;;;;;;;1.94;77.76;97231.34;7378670;19;19947;-71
2022/12/10 07:12:11;;;;;;;;;;;;;;;1.95;77.64;97235.63;7379701;19;19923;-70
2022/12/10 07:14:38;;;;;;;;;;;;;;;1.99;77.48;97237.00;7382321;19;19947;-71
2022/12/10 07:17:05;;;;;;;;;;;;;;;2.00;77.54;97241.25;7383720;19;19948;-71
2022/12/10 07:19:31;;;;;;;;;;;;;;;1.96;77.52;97232.03;7382896;19;19947;-71
2022/12/10 07:21:58;;;;;;;;;;;;;;;2.06;77.32;97232.09;7382409;19;20033;-71
2022/12/10 07:24:24;;;;;;;;;;;;;;;1.96;77.35;97234.66;7386256;19;19946;-71
2022/12/10 07:26:52;;;;;;;;;;;;;;;1.98;77.10;97235.34;7381493;19;19936;-70
2022/12/10 07:29:19;;;;;;;;;;;;;;;2.00;77.44;97245.63;7382641;19;20273;-71
2022/12/10 07:31:47;;;;;;;;;;;;;;;1.85;77.86;97242.56;7381237;19;19927;-71
2022/12/10 07:34:14;;;;;;;;;;;;;;;1.90;77.75;97248.22;7389595;19;19927;-71
2022/12/10 07:36:41;;;;;;;;;;;;;;;2.02;77.48;97248.94;7393087;19;19950;-70
2022/12/10 07:39:08;;;;;;;;;;;;;;;1.98;77.57;97251.00;7390380;19;19919;-70
2022/12/10 07:41:35;;;;;;;;;;;;;;;1.99;77.65;97257.88;7390737;19;19918;-70
2022/12/10 07:44:03;;;;;;;;;;;;;;;2.10;77.03;97265.59;7385811;19;19922;-71
2022/12/10 07:46:30;;;;;;;;;;;;;;;2.09;77.17;97257.91;7388945;19;19951;-70
2022/12/10 07:48:59;;;;;;;;;;;;;;;2.04;77.51;97267.91;7391804;19;19926;-70
2022/12/10 07:51:26;;;;;;;;;;;;;;;2.19;76.81;97267.44;7383923;19;19930;-71
2022/12/10 07:53:53;;;;;;;;;;;;;;;2.12;77.10;97274.13;7388780;19;19926;-71
2022/12/10 07:56:21;;;;;;;;;;;;;;;2.16;77.21;97280.75;7390574;19;19951;-71
2022/12/10 07:58:48;;;;;;;;;;;;;;;2.16;77.73;97280.75;7386476;19;19947;-71
2022/12/10 08:01:18;;;;;;;;;;;;;;;2.31;76.82;97283.81;7383281;19;20348;-71
2022/12/10 08:03:44;;;;;;;;;;;;;;;2.20;77.10;97281.31;7388216;19;19926;-71
2022/12/10 08:06:13;;;;;;;;;;;;;;;2.29;76.90;97290.13;7390275;19;19915;-70
2022/12/10 08:08:40;;;;;;;;;;;;;;;2.20;77.15;97281.31;7389964;19;19926;-71
2022/12/10 08:11:07;;;;;;;;;;;;;;;2.12;77.20;97281.13;7384596;19;19922;-71
2022/12/10 08:13:34;;;;;;;;;;;;;;;2.27;76.79;97279.84;7382656;19;19923;-71
2022/12/10 08:16:11;;;;;;;;;;;;;;;2.38;76.62;97279.75;7383763;19;19914;-71
2022/12/10 08:18:38;;;;;;;;;;;;;;;2.35;76.05;97292.25;7388421;19;19922;-71
2022/12/10 08:21:08;;;;;;;;;;;;;;;2.41;75.85;97289.91;7387296;19;19927;-71
2022/12/10 08:23:35;;;;;;;;;;;;;;;2.43;75.94;97297.63;7387351;19;19940;-71
2022/12/10 08:26:03;;;;;;;;;;;;;;;2.40;76.05;97303.13;7387555;19;19927;-71
2022/12/10 08:28:29;;;;;;;;;;;;;;;2.34;76.01;97298.41;7390538;19;19922;-71
2022/12/10 08:30:56;;;;;;;;;;;;;;;2.22;76.46;97294.25;7388340;19;20348;-70
2022/12/10 08:33:22;;;;;;;;;;;;;;;2.26;76.59;97301.66;7384293;19;19918;-71
2022/12/10 08:35:49;;;;;;;;;;;;;;;2.22;76.48;97302.06;7385534;19;19927;-71
2022/12/10 08:38:15;;;;;;;;;;;;;;;2.27;76.48;97298.09;7392885;19;20513;-71
2022/12/10 08:40:42;;;;;;;;;;;;;;;2.28;76.52;97302.38;7387827;19;19919;-71
2022/12/10 08:43:08;;;;;;;;;;;;;;;2.58;75.79;97305.91;7389159;19;19951;-71
2022/12/10 08:45:35;;;;;;;;;;;;;;;2.62;75.38;97300.31;7385284;19;19915;-71
2022/12/10 08:48:02;;;;;;;;;;;;;;;2.63;76.23;97291.53;7387519;19;20339;-71
2022/12/10 08:50:29;;;;;;;;;;;;;;;2.61;75.58;97287.41;7376861;19;19970;-71
2022/12/10 08:52:55;;;;;;;;;;;;;;;2.65;75.43;97291.38;7386269;19;19922;-71
2022/12/10 08:55:22;;;;;;;;;;;;;;;2.62;75.62;97297.69;7389038;19;19926;-71
2022/12/10 08:57:48;;;;;;;;;;;;;;;2.54;75.57;97301.94;7389480;19;19943;-71
2022/12/10 09:00:15;;;;;;;;;;;;;;;2.49;75.79;97304.94;7388328;19;19933;-71
2022/12/10 09:02:41;;;;;;;;;;;;;;;2.63;75.14;97308.97;7388638;19;19922;-71
2022/12/10 09:05:08;;;;;;;;;;;;;;;2.68;75.17;97316.41;7388717;19;19974;-71
2022/12/10 09:07:35;;;;;;;;;;;;;;;2.97;74.26;97319.09;7386203;19;19923;-72
2022/12/10 09:10:01;;;;;;;;;;;;;;;3.05;73.77;97321.84;7388174;19;19980;-72
2022/12/10 09:12:28;;;;;;;;;;;;;;;2.97;73.87;97321.72;7391728;19;19935;-71
2022/12/10 09:14:55;;;;;;;;;;;;;;;3.00;73.42;97324.91;7391302;19;19923;-72
2022/12/10 09:17:22;;;;;;;;;;;;;;;3.04;73.60;97323.66;7391661;19;19931;-71
2022/12/10 09:19:48;;;;;;;;;;;;;;;3.06;73.62;97329.56;7391081;19;19930;-72
2022/12/10 09:22:15;;;;;;;;;;;;;;;3.14;73.18;97326.28;7386482;19;19950;-71
2022/12/10 09:24:41;;;;;;;;;;;;;;;3.15;73.15;97327.94;7385826;19;19926;-71
2022/12/10 09:27:08;;;;;;;;;;;;;;;3.23;73.11;97327.25;7387242;19;20295;-71
2022/12/10 09:29:35;;;;;;;;;;;;;;;3.39;72.89;97331.97;7388084;19;19914;-71
2022/12/10 09:32:01;;;;;;;;;;;;;;;3.21;73.21;97334.41;7389781;19;19968;-72
2022/12/10 09:34:28;;;;;;;;;;;;;;;3.37;73.26;97334.72;7389028;19;19914;-71
2022/12/10 09:36:55;;;;;;;;;;;;;;;3.46;72.81;97336.50;7388257;19;19918;-71
2022/12/10 09:39:21;;;;;;;;;;;;;;;3.49;73.15;97344.06;7387289;19;20764;-71
2022/12/10 09:41:56;;;;;;;;;;;;;;;3.40;72.33;97333.63;7383249;19;19936;-71
2022/12/10 09:44:36;;;;;;;;;;;;;;;3.45;71.69;97340.09;7384054;19;19915;-71
2022/12/10 09:47:03;;;;;;;;;;;;;;;3.35;72.01;97339.25;7387646;19;19923;-71
2022/12/10 09:49:48;;;;;;;;;;;;;;;3.45;71.64;97339.25;7389518;19;19943;-71
2022/12/10 09:52:16;;;;;;;;;;;;;;;3.30;72.07;97334.44;7388625;19;19919;-71
2022/12/10 09:54:46;;;;;;;;;;;;;;;3.55;72.58;97339.25;7387019;19;20007;-71
2022/12/10 09:57:18;;;;;;;;;;;;;;;3.66;71.48;97329.50;7382157;19;19923;-71
2022/12/10 09:59:46;;;;;;;;;;;;;;;3.50;72.42;97332.66;7386952;19;19915;-72
2022/12/10 10:02:19;;;;;;;;;;;;;;;3.63;72.30;97336.78;7388416;19;19974;-71
2022/12/10 10:04:46;;;;;;;;;;;;;;;3.44;73.02;97335.00;7387031;19;19922;-72
2022/12/10 10:07:20;;;;;;;;;;;;;;;3.67;72.19;97332.94;7388818;19;19951;-72
2022/12/10 10:09:47;;;;;;;;;;;;;;;3.70;71.32;97337.91;7387693;19;19939;-71
2022/12/10 10:12:14;;;;;;;;;;;;;;;3.47;71.48;97346.00;7382517;19;19919;-72
2022/12/10 10:14:42;;;;;;;;;;;;;;;3.68;71.28;97335.41;7382450;19;19922;-71
2022/12/10 10:17:38;;;;;;;;;;;;;;;3.59;70.96;97340.66;7384318;19;19957;-71
2022/12/10 10:20:04;;;;;;;;;;;;;;;3.66;71.50;97339.97;7385510;19;20017;-71
2022/12/10 10:22:32;;;;;;;;;;;;;;;3.68;70.94;97345.03;7386021;19;20517;-72
2022/12/10 10:25:02;;;;;;;;;;;;;;;3.55;71.17;97341.88;7387432;19;21274;-71
2022/12/10 10:27:29;;;;;;;;;;;;;;;3.57;70.94;97334.72;7387457;19;19991;-72
2022/12/10 10:29:56;;;;;;;;;;;;;;;3.73;70.57;97329.75;7380726;19;19915;-71
2022/12/10 10:32:34;;;;;;;;;;;;;;;3.68;70.53;97338.03;7382699;19;19921;-72
2022/12/10 10:35:02;;;;;;;;;;;;;;;3.72;70.10;97336.78;7388289;19;19939;-72
2022/12/10 10:37:39;;;;;;;;;;;;;;;3.67;70.33;97335.56;7387670;19;19914;-72
2022/12/10 10:40:05;;;;;;;;;;;;;;;3.87;70.45;97331.97;7383058;19;20282;-72
2022/12/10 10:42:34;;;;;;;;;;;;;;;3.88;70.13;97333.63;7384799;19;19923;-72
2022/12/10 10:45:05;;;;;;;;;;;;;;;3.84;69.78;97332.22;7381961;19;19978;-71
2022/12/10 10:47:33;;;;;;;;;;;;;;;3.69;70.74;97333.63;7382573;19;19922;-70
2022/12/10 10:50:01;;;;;;;;;;;;;;;3.52;70.39;97328.09;7385866;19;19918;-71
2022/12/10 10:52:33;;;;;;;;;;;;;;;3.74;70.22;97332.25;7386237;19;19939;-70
2022/12/10 10:54:59;;;;;;;;;;;;;;;3.87;69.90;97326.75;7380917;19;19927;-71
2022/12/10 10:57:32;;;;;;;;;;;;;;;3.72;69.71;97325.50;7386184;19;19927;-70
2022/12/10 11:00:19;;;;;;;;;;;;;;;3.88;70.06;97320.53;7386355;19;20371;-71
2022/12/10 11:02:46;;;;;;;;;;;;;;;3.91;69.60;97328.09;7384083;19;19982;-71
2022/12/10 11:05:23;;;;;;;;;;;;;;;3.67;69.42;97336.38;7382850;19;20315;-71
2022/12/10 11:08:03;;;;;;;;;;;;;;;3.80;69.72;97340.50;7387068;19;19923;-71
2022/12/10 11:10:30;;;;;;;;;;;;;;;3.91;69.48;97341.19;7386420;19;19935;-71
2022/12/10 11:13:04;;;;;;;;;;;;;;;3.91;70.30;97342.97;7385567;19;19947;-71
2022/12/10 11:15:32;;;;;;;;;;;;;;;3.73;69.79;97350.69;7385065;19;19918;-71
2022/12/10 11:17:59;;;;;;;;;;;;;;;3.76;69.77;97353.03;7387020;19;19919;-71
2022/12/10 11:20:33;;;;;;;;;;;;;;;3.85;69.08;97357.44;7382199;19;19965;-70
2022/12/10 11:23:12;;;;;;;;;;;;;;;3.92;68.32;97355.09;7384713;19;19922;-71
2022/12/10 11:25:39;;;;;;;;;;;;;;;4.06;68.54;97359.09;7380308;19;19923;-70
2022/12/10 11:28:18;;;;;;;;;;;;;;;4.00;68.79;97357.00;7385940;19;19987;-70
2022/12/10 11:30:47;;;;;;;;;;;;;;;3.67;69.57;97359.09;7379097;19;19948;-71
2022/12/10 11:33:25;;;;;;;;;;;;;;;3.48;70.47;97362.53;7382049;19;19929;-70
2022/12/10 11:36:15;;;;;;;;;;;;;;;3.68;69.95;97356.31;7381476;19;20451;-71
2022/12/10 11:38:45;;;;;;;;;;;;;;;3.81;69.41;97358.69;7378739;19;19923;-71
2022/12/10 11:41:14;;;;;;;;;;;;;;;3.64;69.37;97364.59;7381908;19;19919;-71
2022/12/10 11:43:41;;;;;;;;;;;;;;;3.83;70.25;97361.97;7383327;19;19935;-70
2022/12/10 11:46:13;;;;;;;;;;;;;;;3.47;69.96;97366.91;7380541;19;19923;-70
2022/12/10 11:48:53;;;;;;;;;;;;;;;3.45;70.25;97363.63;7384688;19;19923;-70
2022/12/10 11:51:32;;;;;;;;;;;;;;;3.69;69.70;97354.56;7381185;19;19915;-70
2022/12/10 11:54:01;;;;;;;;;;;;;;;3.84;68.94;97358.41;7380449;19;19926;-70
2022/12/10 11:56:33;;;;;;;;;;;;;;;3.80;69.40;97364.06;7380740;19;19947;-70
2022/12/10 11:59:08;;;;;;;;;;;;;;;3.78;69.17;97358.13;7382521;19;20282;-70
2022/12/10 12:01:35;;;;;;;;;;;;;;;4.11;69.32;97356.88;7381894;19;19927;-71
2022/12/10 12:04:13;;;;;;;;;;;;;;;4.03;69.63;97362.81;7385327;19;19919;-71
2022/12/10 12:06:46;;;;;;;;;;;;;;;4.03;69.60;97364.56;7383404;19;19919;-71
2022/12/10 12:09:17;;;;;;;;;;;;;;;4.04;68.53;97361.00;7380576;19;19991;-71
2022/12/10 12:11:43;;;;;;;;;;;;;;;3.85;69.36;97360.06;7382113;19;19922;-71
2022/12/10 12:14:10;;;;;;;;;;;;;;;3.87;69.19;97352.06;7382264;19;19938;-71
2022/12/10 12:16:39;;;;;;;;;;;;;;;3.87;67.66;97355.53;7381704;19;20367;-70
2022/12/10 12:19:18;;;;;;;;;;;;;;;3.88;69.10;97367.63;7384128;19;20257;-72
2022/12/10 12:21:45;;;;;;;;;;;;;;;3.85;68.85;97356.63;7389674;19;19927;-70
2022/12/10 12:24:30;;;;;;;;;;;;;;;3.74;68.91;97361.03;7392253;19;20557;-71
2022/12/10 12:26:58;;;;;;;;;;;;;;;3.89;68.96;97361.41;7387675;19;20317;-71
2022/12/10 12:29:41;;;;;;;;;;;;;;;3.88;68.19;97370.25;7386522;19;20365;-71
2022/12/10 12:32:18;;;;;;;;;;;;;;;3.99;67.96;97371.06;7390392;19;19926;-71
2022/12/10 12:35:04;;;;;;;;;;;;;;;3.89;68.05;97369.28;7389014;19;19926;-71
2022/12/10 12:37:35;;;;;;;;;;;;;;;3.87;68.49;97379.06;7392231;19;19958;-70
2022/12/10 12:40:03;;;;;;;;;;;;;;;3.98;67.39;97385.94;7389359;19;19939;-71
2022/12/10 12:43:02;;;;;;;;;;;;;;;3.95;68.68;97387.06;7387807;19;19915;-71
2022/12/10 12:45:29;;;;;;;;;;;;;;;3.92;67.99;97387.34;7383000;19;20327;-69
2022/12/10 12:48:09;;;;;;;;;;;;;;;3.81;68.41;97384.84;7391950;19;19925;-70
2022/12/10 12:50:50;;;;;;;;;;;;;;;3.84;68.27;97383.75;7387404;19;19947;-70
2022/12/10 12:53:17;;;;;;;;;;;;;;;3.67;68.71;97386.06;7390457;19;19947;-69
2022/12/10 12:56:02;;;;;;;;;;;;;;;3.79;68.67;97386.78;7386564;19;19982;-70
2022/12/10 12:58:37;;;;;;;;;;;;;;;3.70;69.28;97388.41;7389113;19;19923;-70
2022/12/10 13:01:11;;;;;;;;;;;;;;;3.78;69.12;97402.59;7383643;19;19933;-69
2022/12/10 13:03:42;;;;;;;;;;;;;;;3.86;69.24;97397.50;7389410;19;19933;-70
2022/12/10 13:06:12;;;;;;;;;;;;;;;4.00;69.09;97391.84;7388894;19;19940;-70
2022/12/10 13:08:46;;;;;;;;;;;;;;;3.93;69.37;97394.22;7393008;19;19987;-70
2022/12/10 13:11:39;;;;;;;;;;;;;;;4.10;68.38;97411.00;7385858;19;19911;-70
2022/12/10 13:14:06;;;;;;;;;;;;;;;4.04;68.29;97414.19;7388265;19;19919;-69
2022/12/10 13:16:43;;;;;;;;;;;;;;;4.02;68.37;97416.09;7388513;19;19943;-70
2022/12/10 13:19:19;;;;;;;;;;;;;;;3.93;69.28;97416.94;7389567;19;19937;-70